Time;durP1;ratioP1;P1;durP2;ratioP2;P2;SDS_P1;SDS_P2;PMS_P1;PMS_P2;Temp;Humidity;BMP_temperature;BMP_pressure;BME280_temperature;BME280_humidity;BME280_pressure;Samples;Min_cycle;Max_cycle;Signal;HPM_P1;HPM_P2
2023/06/21 00:01:56;;;;;;;;;31.25;28.50;;;;;25.55;61.55;98705.00;6073778;28;96651;-59
2023/06/21 00:04:59;;;;;;;;;26.80;25.20;;;;;25.58;60.78;98709.03;6056831;28;96858;-59
2023/06/21 00:08:03;;;;;;;;;27.50;26.00;;;;;25.57;61.43;98704.66;6074452;28;96271;-59
2023/06/21 00:11:06;;;;;;;;;27.00;26.00;;;;;25.58;61.51;98704.34;6043892;28;97574;-59
2023/06/21 00:14:11;;;;;;;;;31.00;27.00;;;;;25.59;61.64;98705.97;6074025;28;96783;-60
2023/06/21 00:17:15;;;;;;;;;29.00;26.75;;;;;25.60;61.17;98701.25;6073292;28;96160;-60
2023/06/21 00:20:18;;;;;;;;;29.00;27.00;;;;;25.53;61.74;98707.22;6056979;28;99455;-59
2023/06/21 00:23:22;;;;;;;;;28.00;25.20;;;;;25.40;63.12;98708.19;6072543;28;96381;-59
2023/06/21 00:26:25;;;;;;;;;29.00;27.00;;;;;25.30;63.04;98709.31;6056349;28;96203;-59
2023/06/21 00:29:30;;;;;;;;;27.00;26.00;;;;;25.23;63.27;98710.91;6073040;28;97221;-59
2023/06/21 00:32:33;;;;;;;;;31.00;27.00;;;;;25.19;63.56;98707.19;6073125;28;96105;-59
2023/06/21 00:35:37;;;;;;;;;29.40;27.00;;;;;25.14;64.09;98707.31;6065640;28;96321;-59
2023/06/21 00:38:40;;;;;;;;;32.40;28.00;;;;;25.11;63.66;98703.28;6052263;28;97892;-59
2023/06/21 00:41:45;;;;;;;;;28.00;26.00;;;;;25.12;63.44;98701.34;6039804;28;98278;-59
2023/06/21 00:44:50;;;;;;;;;29.80;25.60;;;;;25.10;63.56;98704.41;6055888;28;96446;-60
2023/06/21 00:47:56;;;;;;;;;32.00;27.40;;;;;25.06;63.94;98714.47;6056017;28;97947;-60
2023/06/21 00:51:00;;;;;;;;;29.00;26.60;;;;;25.03;63.96;98707.63;6039218;28;97247;-59
2023/06/21 00:54:03;;;;;;;;;27.00;24.80;;;;;24.93;63.78;98694.13;6055353;28;96343;-61
2023/06/21 00:57:08;;;;;;;;;27.00;26.00;;;;;25.00;64.05;98699.19;6056109;28;96405;-59
2023/06/21 01:00:19;;;;;;;;;25.60;25.60;;;;;24.99;64.06;98703.88;6073085;28;96894;-59
2023/06/21 01:03:25;;;;;;;;;26.40;24.00;;;;;24.97;62.03;98697.88;6037501;28;98466;-60
2023/06/21 01:06:35;;;;;;;;;26.60;24.00;;;;;24.94;62.76;98697.72;6025481;28;98517;-59
2023/06/21 01:09:55;;;;;;;;;29.00;25.00;;;;;24.91;63.51;98690.91;6055816;28;96364;-60
2023/06/21 01:13:12;;;;;;;;;29.25;27.25;;;;;24.89;64.13;98701.41;6054984;28;96747;-59
2023/06/21 01:16:20;;;;;;;;;31.00;27.00;;;;;24.90;63.73;98694.78;6055493;28;96613;-60
2023/06/21 01:19:32;;;;;;;;;25.00;23.00;;;;;24.92;63.00;98680.69;6047247;28;96547;-60
2023/06/21 01:22:46;;;;;;;;;25.40;24.00;;;;;24.94;62.05;98672.88;6053699;28;96384;-59
2023/06/21 01:26:03;;;;;;;;;27.00;24.00;;;;;25.05;62.29;98670.63;6055390;28;96475;-62
2023/06/21 01:29:12;;;;;;;;;22.20;20.20;;;;;25.12;61.06;98674.53;6054348;28;96316;-59
2023/06/21 01:32:18;;;;;;;;;25.20;24.00;;;;;25.21;60.00;98682.84;6072114;28;96386;-59
2023/06/21 01:35:22;;;;;;;;;23.20;22.00;;;;;25.24;58.70;98687.72;6055401;28;96472;-61
2023/06/21 01:38:26;;;;;;;;;25.00;23.00;;;;;25.31;58.50;98699.09;6064448;28;96377;-59
2023/06/21 01:41:29;;;;;;;;;24.00;23.50;;;;;25.33;58.37;98702.31;6062770;28;96310;-60
2023/06/21 01:44:35;;;;;;;;;25.00;24.00;;;;;25.33;58.77;98708.66;6057857;28;96977;-59
2023/06/21 01:47:42;;;;;;;;;23.40;21.40;;;;;25.34;59.63;98702.00;6053274;28;96417;-59
2023/06/21 01:50:47;;;;;;;;;26.00;24.25;;;;;25.32;59.60;98695.19;6050146;28;96352;-60
2023/06/21 01:53:51;;;;;;;;;25.00;24.00;;;;;25.24;59.81;98696.00;6064878;28;96521;-60
2023/06/21 01:57:00;;;;;;;;;25.00;24.00;;;;;25.23;60.59;98706.22;6071588;28;96913;-60
2023/06/21 02:00:16;;;;;;;;;29.00;27.00;;;;;25.11;61.22;98705.22;6054301;28;96304;-62
2023/06/21 02:03:23;;;;;;;;;24.00;23.00;;;;;25.00;61.59;98713.78;6055361;28;96590;-60
2023/06/21 02:06:30;;;;;;;;;27.00;24.00;;;;;24.96;61.68;98710.06;6057209;28;96178;-60
2023/06/21 02:09:35;;;;;;;;;25.40;22.40;;;;;24.89;61.97;98706.94;6053893;28;96258;-59
2023/06/21 02:12:41;;;;;;;;;23.75;21.75;;;;;24.82;62.35;98712.09;6053711;28;96650;-59
2023/06/21 02:15:47;;;;;;;;;24.60;21.00;;;;;24.76;62.62;98704.28;6071279;28;96405;-59
2023/06/21 02:18:50;;;;;;;;;21.60;21.00;;;;;24.70;62.99;98700.03;6038030;28;98496;-60
2023/06/21 02:21:54;;;;;;;;;23.50;21.50;;;;;24.65;63.65;98689.97;6038602;28;97906;-59
2023/06/21 02:24:57;;;;;;;;;24.75;21.75;;;;;24.57;63.51;98688.81;6071211;28;96704;-59
2023/06/21 02:28:00;;;;;;;;;23.00;21.00;;;;;24.42;64.78;98685.66;6039673;28;96951;-59
2023/06/21 02:31:05;;;;;;;;;21.50;20.00;;;;;24.33;65.08;98680.09;6054121;28;98746;-60
2023/06/21 02:34:10;;;;;;;;;25.00;23.00;;;;;24.23;65.50;98685.06;6039832;28;97689;-57
2023/06/21 02:37:13;;;;;;;;;25.40;24.60;;;;;24.09;65.52;98677.66;6038582;28;97691;-57
2023/06/21 02:40:19;;;;;;;;;26.60;24.00;;;;;24.14;65.74;98690.50;6039087;28;96381;-57
2023/06/21 02:43:23;;;;;;;;;24.50;23.50;;;;;24.13;65.23;98691.63;6053612;28;96356;-58
2023/06/21 02:46:30;;;;;;;;;25.20;22.60;;;;;24.10;65.55;98686.72;6027782;28;98464;-57
2023/06/21 02:49:38;;;;;;;;;23.60;21.60;;;;;24.10;66.28;98698.56;6054365;28;96483;-57
2023/06/21 02:52:42;;;;;;;;;22.80;21.80;;;;;24.10;66.19;98695.00;6038678;28;96655;-57
2023/06/21 02:55:47;;;;;;;;;21.60;20.60;;;;;24.05;66.40;98689.59;6038386;28;98877;-57
2023/06/21 02:58:50;;;;;;;;;26.00;26.00;;;;;24.06;66.59;98702.25;6062646;28;97358;-59
2023/06/21 03:01:55;;;;;;;;;23.40;23.00;;;;;24.05;66.50;98708.88;6050709;28;98680;-59
2023/06/21 03:05:03;;;;;;;;;26.20;22.20;;;;;24.09;66.70;98710.69;6046293;28;96397;-59
2023/06/21 03:08:07;;;;;;;;;22.20;22.00;;;;;24.13;66.52;98705.41;6027224;28;97068;-60
2023/06/21 03:11:12;;;;;;;;;24.00;24.00;;;;;24.20;66.50;98705.78;6053108;28;96396;-59
2023/06/21 03:14:16;;;;;;;;;25.40;23.40;;;;;24.25;66.37;98705.66;6035731;28;97069;-59
2023/06/21 03:17:20;;;;;;;;;23.60;21.60;;;;;24.29;66.41;98703.09;6042721;28;96315;-59
2023/06/21 03:20:26;;;;;;;;;23.40;21.00;;;;;24.32;66.43;98707.97;6038872;28;96733;-59
2023/06/21 03:23:30;;;;;;;;;24.60;23.60;;;;;24.35;66.50;98716.41;6067615;28;97054;-59
2023/06/21 03:26:35;;;;;;;;;25.25;23.25;;;;;24.37;66.40;98724.38;6050470;28;96657;-59
2023/06/21 03:29:38;;;;;;;;;22.00;21.00;;;;;24.43;66.38;98712.91;6053656;28;96405;-59
2023/06/21 03:32:46;;;;;;;;;23.25;22.00;;;;;24.47;66.31;98713.88;6042369;28;96993;-60
2023/06/21 03:35:52;;;;;;;;;24.20;23.80;;;;;24.55;66.38;98715.03;6067287;28;96294;-59
2023/06/21 03:38:56;;;;;;;;;23.25;22.00;;;;;24.60;66.28;98721.22;6024924;28;96804;-59
2023/06/21 03:41:59;;;;;;;;;23.00;20.40;;;;;24.66;66.39;98721.09;6067286;28;96986;-59
2023/06/21 03:45:03;;;;;;;;;24.40;22.40;;;;;24.71;66.29;98727.28;6053789;28;96710;-59
2023/06/21 03:48:08;;;;;;;;;25.80;23.80;;;;;24.79;65.74;98723.75;6039935;28;99194;-59
2023/06/21 03:51:13;;;;;;;;;26.00;24.00;;;;;24.89;65.74;98728.19;6063021;28;96470;-59
2023/06/21 03:54:17;;;;;;;;;26.00;25.20;;;;;24.98;65.99;98718.81;6036401;28;96524;-59
2023/06/21 03:57:20;;;;;;;;;25.00;24.00;;;;;25.11;65.93;98721.78;6072635;28;96662;-60
2023/06/21 04:00:25;;;;;;;;;27.00;24.00;;;;;25.25;65.50;98733.50;6051798;28;96347;-60
2023/06/21 04:03:31;;;;;;;;;29.50;24.00;;;;;25.37;65.42;98737.22;6079353;28;96282;-59
2023/06/21 04:06:37;;;;;;;;;27.60;25.60;;;;;25.50;65.35;98737.44;6059851;28;97139;-59
2023/06/21 04:09:40;;;;;;;;;26.75;25.75;;;;;25.63;64.73;98737.31;6056053;28;97411;-60
2023/06/21 04:12:43;;;;;;;;;28.00;26.60;;;;;25.79;64.42;98735.69;6074200;28;96611;-59
2023/06/21 04:15:48;;;;;;;;;28.00;27.00;;;;;26.03;64.19;98750.94;6051831;28;96321;-59
2023/06/21 04:18:52;;;;;;;;;30.80;27.80;;;;;26.22;62.99;98740.38;6064044;28;96364;-60
2023/06/21 04:21:56;;;;;;;;;27.60;26.40;;;;;26.45;62.01;98743.75;6064744;28;96338;-59
2023/06/21 04:24:59;;;;;;;;;26.00;24.40;;;;;26.65;60.43;98743.84;6045092;28;99228;-59
2023/06/21 04:28:06;;;;;;;;;26.00;23.40;;;;;26.92;60.13;98748.19;6072422;28;96292;-59
2023/06/21 04:31:09;;;;;;;;;24.75;22.50;;;;;27.17;59.59;98754.75;6056361;28;96571;-59
2023/06/21 04:34:14;;;;;;;;;27.75;25.50;;;;;27.40;58.39;98753.28;6073192;28;97189;-59
2023/06/21 04:37:23;;;;;;;;;28.25;27.00;;;;;27.61;58.58;98760.84;6073067;28;96400;-59
2023/06/21 04:40:26;;;;;;;;;25.80;24.80;;;;;27.81;58.19;98758.06;6025353;28;96659;-60
2023/06/21 04:43:30;;;;;;;;;28.60;26.00;;;;;27.97;57.51;98764.63;6072948;28;96611;-59
2023/06/21 04:46:35;;;;;;;;;28.00;27.00;;;;;28.11;57.06;98763.50;6073816;28;96447;-59
2023/06/21 04:49:40;;;;;;;;;29.40;26.00;;;;;28.25;56.20;98764.88;6029590;28;96719;-60
2023/06/21 04:52:47;;;;;;;;;29.60;26.00;;;;;28.34;56.09;98764.81;6063751;28;96585;-60
2023/06/21 04:55:52;;;;;;;;;28.50;26.00;;;;;28.45;56.24;98768.75;6064716;28;96609;-60
2023/06/21 04:58:55;;;;;;;;;31.00;25.00;;;;;28.60;55.75;98758.97;6063356;28;96690;-60
2023/06/21 05:01:58;;;;;;;;;28.00;27.00;;;;;28.69;54.60;98754.13;6066154;28;96922;-59
2023/06/21 05:05:04;;;;;;;;;28.00;26.00;;;;;28.73;54.36;98736.50;6055489;28;97049;-59
2023/06/21 05:08:07;;;;;;;;;27.80;26.80;;;;;28.81;53.93;98741.13;6058846;28;96730;-60
2023/06/21 05:11:10;;;;;;;;;30.00;28.40;;;;;28.79;53.78;98742.63;6072272;28;96422;-60
2023/06/21 05:14:14;;;;;;;;;31.00;28.00;;;;;28.72;53.52;98745.16;6074267;28;96792;-60
2023/06/21 05:17:17;;;;;;;;;29.60;28.00;;;;;28.68;54.21;98742.25;6068664;28;96637;-60
2023/06/21 05:20:23;;;;;;;;;28.20;26.80;;;;;28.74;53.38;98748.38;6072252;28;96488;-61
2023/06/21 05:23:26;;;;;;;;;27.20;25.00;;;;;28.83;51.83;98754.66;6070308;28;96888;-60
2023/06/21 05:26:30;;;;;;;;;29.80;26.00;;;;;28.98;52.01;98764.28;6056944;28;99470;-59
2023/06/21 05:29:34;;;;;;;;;28.25;27.25;;;;;29.02;51.14;98762.44;6072838;28;96912;-59
2023/06/21 05:32:38;;;;;;;;;29.00;27.00;;;;;29.08;50.52;98769.34;6074810;28;96510;-60
2023/06/21 05:35:44;;;;;;;;;26.00;25.00;;;;;29.16;51.52;98768.44;6049068;28;97646;-61
2023/06/21 05:38:47;;;;;;;;;25.40;25.00;;;;;29.22;51.65;98767.06;6076540;28;96330;-60
2023/06/21 05:41:51;;;;;;;;;26.00;23.60;;;;;29.31;50.99;98775.31;6076160;28;96733;-59
2023/06/21 05:44:54;;;;;;;;;25.00;24.00;;;;;29.36;50.83;98766.75;6079571;28;96340;-59
2023/06/21 05:47:58;;;;;;;;;25.00;22.75;;;;;29.42;51.05;98763.34;6075626;28;96550;-59
2023/06/21 05:51:03;;;;;;;;;25.00;23.00;;;;;29.60;50.89;98770.28;6078505;28;96365;-59
2023/06/21 05:54:07;;;;;;;;;24.20;21.60;;;;;29.78;50.83;98770.81;6077136;28;96431;-60
2023/06/21 05:57:10;;;;;;;;;21.60;20.00;;;;;29.92;49.79;98779.63;6051976;28;98680;-60
2023/06/21 06:00:14;;;;;;;;;26.00;23.33;;;;;30.03;49.37;98780.75;6056544;28;96467;-59
2023/06/21 06:03:19;;;;;;;;;23.25;21.75;;;;;30.18;49.54;98781.16;6076925;28;96538;-60
2023/06/21 06:06:24;;;;;;;;;24.00;23.00;;;;;30.24;49.19;98772.22;6059957;28;96967;-59
2023/06/21 06:09:27;;;;;;;;;25.00;24.00;;;;;30.42;49.29;98775.50;6076993;28;96294;-60
2023/06/21 06:12:30;;;;;;;;;27.00;24.20;;;;;30.58;48.42;98778.34;6068921;28;96727;-61
2023/06/21 06:15:34;;;;;;;;;27.60;25.00;;;;;30.66;48.22;98780.94;6043311;28;96524;-61
2023/06/21 06:18:37;;;;;;;;;25.75;23.75;;;;;30.81;48.03;98782.94;6047672;28;98920;-61
2023/06/21 06:21:43;;;;;;;;;24.00;22.50;;;;;30.94;48.81;98778.91;6065289;28;96439;-61
2023/06/21 06:24:48;;;;;;;;;32.20;29.80;;;;;31.11;47.27;98785.31;6060714;28;97577;-59
2023/06/21 06:27:51;;;;;;;;;23.60;22.60;;;;;31.29;47.33;98783.78;6066311;28;97492;-61
2023/06/21 06:30:55;;;;;;;;;22.00;21.00;;;;;31.46;46.25;98780.63;6048355;28;96760;-61
2023/06/21 06:33:58;;;;;;;;;24.25;21.25;;;;;31.61;45.24;98777.03;6066093;28;96368;-61
2023/06/21 06:37:03;;;;;;;;;24.20;21.60;;;;;31.74;46.00;98784.09;6065421;28;96320;-61
2023/06/21 06:40:17;;;;;;;;;22.75;20.75;;;;;31.86;44.99;98785.94;6064416;28;96684;-61
2023/06/21 06:43:20;;;;;;;;;22.00;21.00;;;;;31.98;44.44;98785.00;6065991;28;96263;-61
2023/06/21 06:46:23;;;;;;;;;27.00;24.00;;;;;32.02;45.04;98791.44;6049512;28;96404;-61
2023/06/21 06:49:27;;;;;;;;;20.00;20.00;;;;;32.16;45.69;98784.22;6065988;28;96541;-61
2023/06/21 06:52:32;;;;;;;;;23.60;20.80;;;;;32.28;44.40;98779.66;6059681;28;96895;-61
2023/06/21 06:55:35;;;;;;;;;21.40;19.80;;;;;32.46;43.99;98767.69;6059100;28;96617;-61
2023/06/21 06:58:39;;;;;;;;;22.00;20.60;;;;;32.50;42.62;98776.91;6060839;28;96528;-62
2023/06/21 07:01:42;;;;;;;;;24.00;23.00;;;;;32.61;42.44;98771.53;6054159;28;97658;-61
2023/06/21 07:04:46;;;;;;;;;21.00;20.00;;;;;32.78;42.41;98773.09;6056175;28;96681;-59
2023/06/21 07:07:50;;;;;;;;;22.25;19.75;;;;;32.90;42.43;98778.47;6054864;28;96460;-59
2023/06/21 07:10:54;;;;;;;;;21.40;20.00;;;;;33.08;41.89;98774.03;6064061;28;96881;-59
2023/06/21 07:13:57;;;;;;;;;20.20;18.80;;;;;33.19;40.75;98766.63;6059906;28;96289;-58
2023/06/21 07:17:01;;;;;;;;;21.75;20.25;;;;;33.28;40.99;98772.00;6064379;28;96306;-60
2023/06/21 07:20:06;;;;;;;;;25.20;21.00;;;;;33.33;41.17;98771.66;6061613;28;96769;-60
2023/06/21 07:23:12;;;;;;;;;19.00;18.40;;;;;33.35;40.96;98769.28;6066239;28;96839;-59
2023/06/21 07:26:15;;;;;;;;;22.00;20.40;;;;;33.43;40.72;98771.81;6064947;28;97007;-60
2023/06/21 07:29:19;;;;;;;;;24.80;22.00;;;;;33.59;41.44;98771.66;6064189;28;96944;-59
2023/06/21 07:32:22;;;;;;;;;22.00;20.00;;;;;33.84;40.45;98778.44;6067432;28;96742;-59
2023/06/21 07:35:25;;;;;;;;;24.80;24.60;;;;;34.14;39.98;98772.84;6045475;28;96731;-59
2023/06/21 07:38:31;;;;;;;;;20.60;19.60;;;;;34.31;39.84;98779.84;6035191;28;97015;-59
2023/06/21 07:41:34;;;;;;;;;23.60;22.60;;;;;34.41;38.91;98775.56;6056726;28;96914;-59
2023/06/21 07:44:37;;;;;;;;;25.50;23.50;;;;;34.48;39.34;98784.06;6044012;28;96668;-60
2023/06/21 07:47:44;;;;;;;;;25.60;22.20;;;;;34.53;38.86;98781.72;6046981;28;97208;-59
2023/06/21 07:50:47;;;;;;;;;28.00;26.00;;;;;34.70;38.64;98781.13;6050694;28;96708;-59
2023/06/21 07:53:52;;;;;;;;;23.60;21.00;;;;;34.75;38.29;98779.97;6066310;28;97148;-59
2023/06/21 07:56:55;;;;;;;;;26.00;23.60;;;;;34.86;38.85;98780.06;6070021;28;96364;-59
2023/06/21 08:00:06;;;;;;;;;24.40;21.40;;;;;34.76;37.53;98787.19;6072257;28;96886;-59
2023/06/21 08:03:18;;;;;;;;;23.00;22.40;;;;;34.95;38.97;98780.56;6066664;28;98501;-61
2023/06/21 08:06:21;;;;;;;;;21.80;18.80;;;;;35.04;37.77;98767.84;6061790;28;97061;-59
2023/06/21 08:09:26;;;;;;;;;23.00;21.60;;;;;35.29;38.12;98775.69;6068595;28;96864;-59
2023/06/21 08:12:29;;;;;;;;;23.20;21.00;;;;;35.65;37.25;98780.34;6067812;28;96824;-59
2023/06/21 08:15:33;;;;;;;;;22.00;20.60;;;;;35.87;34.96;98784.91;6066514;28;96319;-59
2023/06/21 08:18:36;;;;;;;;;24.60;23.00;;;;;35.99;36.21;98778.16;6034820;28;97743;-60
2023/06/21 08:21:39;;;;;;;;;23.40;21.40;;;;;36.28;35.81;98776.31;6068254;28;96702;-60
2023/06/21 08:24:45;;;;;;;;;23.40;22.40;;;;;36.43;34.47;98773.16;6071294;28;96920;-60
2023/06/21 08:27:49;;;;;;;;;22.00;19.00;;;;;36.39;33.46;98779.97;6050582;28;96726;-60
2023/06/21 08:30:52;;;;;;;;;21.00;17.00;;;;;36.66;33.47;98770.03;6068260;28;96476;-62
2023/06/21 08:33:56;;;;;;;;;20.75;20.00;;;;;36.91;32.90;98778.50;6067922;28;96953;-61
2023/06/21 08:37:00;;;;;;;;;21.00;19.00;;;;;37.04;32.83;98787.38;6050502;28;97003;-59
2023/06/21 08:40:05;;;;;;;;;18.60;18.60;;;;;37.24;32.09;98782.97;6051174;28;96449;-60
2023/06/21 08:43:09;;;;;;;;;19.60;18.60;;;;;37.15;31.76;98785.38;6051301;28;96688;-59
2023/06/21 08:46:12;;;;;;;;;21.00;19.00;;;;;37.15;31.60;98786.16;6049742;28;97311;-60
2023/06/21 08:49:20;;;;;;;;;19.80;17.00;;;;;37.06;31.78;98773.69;6068249;28;96340;-59
2023/06/21 08:52:28;;;;;;;;;20.00;17.00;;;;;37.14;32.85;98778.16;6036026;28;96422;-59
2023/06/21 08:55:35;;;;;;;;;18.00;18.00;;;;;37.28;32.72;98766.91;6068101;28;96328;-59
2023/06/21 08:58:46;;;;;;;;;20.00;19.20;;;;;37.50;31.87;98767.66;6068253;28;96440;-60
2023/06/21 09:01:59;;;;;;;;;20.00;18.50;;;;;37.60;30.60;98755.63;6047256;28;96519;-59
2023/06/21 09:05:13;;;;;;;;;19.00;18.00;;;;;37.63;31.48;98764.06;6067729;28;96336;-60
2023/06/21 09:08:17;;;;;;;;;22.00;21.00;;;;;37.38;30.93;98763.28;6067928;28;96887;-60
2023/06/21 09:11:24;;;;;;;;;20.00;19.00;;;;;37.38;31.14;98780.16;6071889;28;96318;-59
2023/06/21 09:14:31;;;;;;;;;20.60;17.60;;;;;37.38;31.21;98777.34;6053363;28;96324;-60
2023/06/21 09:17:38;;;;;;;;;21.00;18.40;;;;;37.26;30.85;98786.97;6067986;28;96627;-59
2023/06/21 09:20:44;;;;;;;;;21.40;18.80;;;;;37.25;31.29;98774.13;6049530;28;97381;-60
2023/06/21 09:23:47;;;;;;;;;18.00;17.20;;;;;37.14;31.00;98787.38;6063037;28;96566;-60
2023/06/21 09:26:52;;;;;;;;;19.00;17.00;;;;;37.31;31.74;98780.97;6064314;28;96279;-59
2023/06/21 09:29:56;;;;;;;;;19.00;17.00;;;;;37.10;30.88;98766.09;6053398;28;96641;-60
2023/06/21 09:33:10;;;;;;;;;19.00;19.00;;;;;37.06;31.48;98785.75;6050509;28;96622;-60
2023/06/21 09:36:14;;;;;;;;;19.00;18.00;;;;;37.09;31.25;98787.00;6050477;28;96939;-60
2023/06/21 09:39:17;;;;;;;;;18.00;17.00;;;;;37.37;31.59;98786.97;6066884;28;96369;-59
2023/06/21 09:42:25;;;;;;;;;21.00;18.00;;;;;37.54;30.79;98731.94;6048324;28;97686;-60
2023/06/21 09:45:28;;;;;;;;;19.40;18.00;;;;;38.23;30.82;98782.00;6049280;28;96824;-60
2023/06/21 09:48:33;;;;;;;;;20.20;17.20;;;;;38.46;30.00;98769.03;6053970;28;96682;-60
2023/06/21 09:51:43;;;;;;;;;19.20;17.80;;;;;38.86;29.14;98792.13;6043004;28;97310;-59
2023/06/21 09:54:46;;;;;;;;;19.60;18.40;;;;;39.14;29.66;98786.34;6047710;28;96674;-60
2023/06/21 09:57:54;;;;;;;;;19.00;18.00;;;;;39.27;28.75;98790.25;6066550;28;96503;-59
2023/06/21 10:00:57;;;;;;;;;19.00;18.00;;;;;39.46;28.59;98790.91;6044185;28;96646;-60
2023/06/21 10:04:10;;;;;;;;;18.00;17.00;;;;;39.66;28.00;98789.91;6065148;28;96382;-59
2023/06/21 10:07:14;;;;;;;;;18.00;17.60;;;;;39.70;27.50;98784.22;6045613;28;97282;-60
2023/06/21 10:10:20;;;;;;;;;21.40;20.00;;;;;39.56;26.52;98787.19;6046955;28;96787;-60
2023/06/21 10:13:29;;;;;;;;;18.40;17.40;;;;;39.62;26.78;98786.34;6050702;28;99228;-60
2023/06/21 10:16:35;;;;;;;;;19.80;18.00;;;;;39.23;27.23;98775.38;6064359;28;96582;-60
2023/06/21 10:19:42;;;;;;;;;20.00;18.00;;;;;38.90;27.44;98787.31;6063821;28;97601;-60
2023/06/21 10:22:51;;;;;;;;;20.40;19.40;;;;;38.33;28.16;98772.69;6062869;28;96734;-60
2023/06/21 10:26:00;;;;;;;;;19.00;19.00;;;;;37.65;29.36;98763.66;6037642;28;99005;-60
2023/06/21 10:29:05;;;;;;;;;19.75;17.75;;;;;37.12;29.39;98784.19;6046694;28;96724;-59
2023/06/21 10:32:09;;;;;;;;;19.60;18.00;;;;;36.70;30.33;98770.06;6048820;28;98482;-59
2023/06/21 10:35:19;;;;;;;;;20.00;19.00;;;;;36.59;30.60;98783.25;6062972;28;97027;-60
2023/06/21 10:38:31;;;;;;;;;19.80;18.00;;;;;36.41;30.95;98780.34;6060536;28;96266;-60
2023/06/21 10:41:35;;;;;;;;;18.50;17.50;;;;;36.26;31.08;98787.97;6061106;28;96370;-59
2023/06/21 10:44:41;;;;;;;;;19.00;17.60;;;;;36.13;31.65;98781.06;6053120;28;96730;-60
2023/06/21 10:47:48;;;;;;;;;21.00;18.00;;;;;35.90;31.78;98781.34;6051473;28;96422;-59
2023/06/21 10:50:53;;;;;;;;;19.25;17.25;;;;;35.72;31.91;98779.63;6062515;28;96419;-60
2023/06/21 10:53:58;;;;;;;;;21.00;20.00;;;;;35.62;31.70;98789.56;6058489;28;98238;-61
2023/06/21 10:57:01;;;;;;;;;18.00;17.40;;;;;35.56;32.33;98777.09;6063866;28;96673;-60
2023/06/21 11:00:08;;;;;;;;;20.00;18.00;;;;;35.45;32.72;98774.22;6030939;28;98973;-61
2023/06/21 11:03:16;;;;;;;;;20.75;19.75;;;;;35.30;33.55;98754.88;6061139;28;97681;-61
2023/06/21 11:06:28;;;;;;;;;20.00;18.40;;;;;35.27;33.48;98773.28;6045000;28;98569;-61
2023/06/21 11:09:39;;;;;;;;;20.25;18.00;;;;;35.28;34.80;98774.09;6062653;28;96424;-62
2023/06/21 11:12:42;;;;;;;;;19.50;18.00;;;;;35.31;34.82;98771.31;6062502;28;97079;-61
2023/06/21 11:15:48;;;;;;;;;22.00;21.00;;;;;35.21;33.76;98763.63;6063223;28;97390;-61
2023/06/21 11:18:55;;;;;;;;;20.00;19.00;;;;;35.36;34.04;98775.75;6060434;28;96350;-61
2023/06/21 11:21:58;;;;;;;;;19.00;19.00;;;;;35.43;33.63;98775.81;6064240;28;97595;-61
2023/06/21 11:25:16;;;;;;;;;19.00;18.00;;;;;35.47;33.90;98779.44;6061027;28;97532;-61
2023/06/21 11:28:31;;;;;;;;;18.25;17.25;;;;;35.42;32.48;98779.81;6045075;28;97796;-61
2023/06/21 11:31:39;;;;;;;;;19.60;18.60;;;;;35.33;32.40;98771.72;6057468;28;96356;-61
2023/06/21 11:34:56;;;;;;;;;18.80;18.20;;;;;35.29;32.13;98770.06;6053935;28;96847;-60
2023/06/21 11:38:00;;;;;;;;;17.00;15.60;;;;;35.32;31.90;98763.69;6056406;28;96975;-61
2023/06/21 11:41:36;;;;;;;;;21.00;21.00;;;;;35.33;32.55;98765.31;6053814;28;97196;-61
2023/06/21 11:44:39;;;;;;;;;19.00;18.25;;;;;35.33;33.27;98768.94;6065181;28;96288;-61
2023/06/21 11:47:59;;;;;;;;;18.00;16.00;;;;;35.39;33.03;98763.75;6065106;28;96451;-61
2023/06/21 11:51:09;;;;;;;;;20.00;18.40;;;;;35.29;32.61;98733.63;6047977;28;96654;-61
2023/06/21 11:54:12;;;;;;;;;20.00;17.00;;;;;35.49;32.74;98757.41;6055032;28;97063;-61
2023/06/21 11:57:16;;;;;;;;;19.40;17.80;;;;;35.53;32.94;98750.63;6061735;28;96270;-61
2023/06/21 12:00:21;;;;;;;;;18.80;16.80;;;;;35.51;32.38;98743.81;6065304;28;96405;-61
2023/06/21 12:03:26;;;;;;;;;17.80;16.80;;;;;35.48;32.54;98730.59;6065435;28;96328;-61
2023/06/21 12:06:30;;;;;;;;;18.00;17.00;;;;;35.42;32.84;98735.75;6065787;28;96377;-61
2023/06/21 12:09:34;;;;;;;;;16.00;14.00;;;;;35.39;33.15;98736.50;6052201;28;96584;-61
2023/06/21 12:12:37;;;;;;;;;18.60;17.60;;;;;35.20;33.28;98737.59;6051193;28;98450;-61
2023/06/21 12:15:46;;;;;;;;;16.20;15.20;;;;;35.15;34.18;98737.09;6068938;28;97461;-61
2023/06/21 12:18:52;;;;;;;;;17.00;16.00;;;;;35.06;34.74;98751.47;6069498;28;96527;-60
2023/06/21 12:22:02;;;;;;;;;16.00;14.50;;;;;34.84;34.95;98758.06;6052183;28;96269;-61
2023/06/21 12:25:06;;;;;;;;;17.00;15.60;;;;;34.63;35.28;98769.03;6068917;28;96999;-61
2023/06/21 12:28:11;;;;;;;;;18.00;17.00;;;;;34.46;36.28;98775.22;6035124;28;96949;-61
2023/06/21 12:31:16;;;;;;;;;19.00;16.20;;;;;34.28;38.12;98775.84;6051795;28;96479;-61
2023/06/21 12:34:21;;;;;;;;;22.00;19.00;;;;;34.11;38.48;98779.19;6074964;28;97254;-61
2023/06/21 12:37:24;;;;;;;;;18.00;17.00;;;;;34.01;38.56;98793.88;6056620;28;97009;-60
2023/06/21 12:40:27;;;;;;;;;19.00;16.60;;;;;33.82;39.37;98817.16;6051430;28;96868;-61
2023/06/21 12:43:43;;;;;;;;;16.00;15.80;;;;;33.65;40.27;98817.69;6068148;28;97586;-61
2023/06/21 12:46:46;;;;;;;;;18.60;18.40;;;;;33.53;41.43;98828.28;6050786;28;96631;-61
2023/06/21 12:49:59;;;;;;;;;18.00;17.00;;;;;33.37;42.61;98834.81;6051149;28;96606;-60
2023/06/21 12:53:02;;;;;;;;;20.00;16.20;;;;;33.28;43.21;98839.06;6049434;28;99369;-61
2023/06/21 12:56:06;;;;;;;;;19.00;17.00;;;;;33.20;43.95;98849.28;6063003;28;96768;-61
2023/06/21 12:59:10;;;;;;;;;18.60;18.40;;;;;33.18;43.90;98848.88;6064717;28;97032;-61
2023/06/21 13:02:13;;;;;;;;;21.80;20.00;;;;;33.22;44.44;98849.72;6064924;28;97513;-61
2023/06/21 13:05:18;;;;;;;;;18.75;17.00;;;;;33.28;44.45;98858.59;6066013;28;96664;-60
2023/06/21 13:08:21;;;;;;;;;17.00;16.50;;;;;33.31;44.36;98855.88;6065065;28;96312;-61
2023/06/21 13:11:25;;;;;;;;;19.20;18.80;;;;;33.34;44.87;98854.31;6030538;28;97297;-61
2023/06/21 13:14:29;;;;;;;;;20.00;17.00;;;;;33.36;44.59;98857.53;6048334;28;97118;-61
2023/06/21 13:17:32;;;;;;;;;17.80;16.80;;;;;33.42;44.28;98873.63;6048188;28;97929;-61
2023/06/21 13:20:39;;;;;;;;;17.20;16.20;;;;;33.36;45.33;98875.13;6063603;28;96403;-60
2023/06/21 13:23:42;;;;;;;;;18.00;17.00;;;;;32.98;46.73;98867.63;6060169;28;96703;-60
2023/06/21 13:26:46;;;;;;;;;17.80;17.20;;;;;33.13;45.84;98859.50;6065556;28;96753;-61
2023/06/21 13:29:49;;;;;;;;;18.00;16.50;;;;;33.28;46.07;98853.81;6066047;28;96285;-60
2023/06/21 13:32:53;;;;;;;;;16.00;15.00;;;;;33.23;45.80;98851.34;6065149;28;96617;-60
2023/06/21 13:35:57;;;;;;;;;16.60;16.00;;;;;33.17;45.97;98854.81;6065643;28;96462;-60
2023/06/21 13:39:00;;;;;;;;;16.00;15.00;;;;;33.29;44.61;98847.03;6064208;28;96130;-60
2023/06/21 13:42:04;;;;;;;;;14.40;13.00;;;;;33.04;41.69;98829.81;6065863;28;97719;-60
2023/06/21 13:45:09;;;;;;;;;10.80;10.00;;;;;32.97;41.68;98838.06;6067767;28;97556;-60
2023/06/21 13:48:12;;;;;;;;;12.60;11.00;;;;;32.83;40.31;98812.69;6070286;28;97048;-61
2023/06/21 13:51:17;;;;;;;;;12.00;11.60;;;;;32.97;39.72;98826.91;6068315;28;96252;-61
2023/06/21 13:54:20;;;;;;;;;11.40;11.00;;;;;33.03;38.92;98822.63;6070089;28;97700;-60
2023/06/21 13:57:24;;;;;;;;;10.00;9.00;;;;;33.09;39.29;98831.47;6065125;28;97093;-61
2023/06/21 14:00:28;;;;;;;;;11.20;11.00;;;;;33.12;39.33;98825.16;6063504;28;96656;-60
2023/06/21 14:03:31;;;;;;;;;10.00;9.60;;;;;33.23;39.01;98830.97;6064825;28;96995;-60
2023/06/21 14:06:36;;;;;;;;;10.60;10.00;;;;;32.95;39.65;98828.44;6052370;28;96450;-60
2023/06/21 14:09:42;;;;;;;;;8.60;8.00;;;;;33.10;38.10;98822.75;6066820;28;97150;-61
2023/06/21 14:12:45;;;;;;;;;10.00;10.00;;;;;33.17;38.69;98827.69;6065231;28;96829;-61